sensor_id;sensor_type;location;lat;lon;timestamp;temperature;humidity
23069;DHT22;11702;50.856;4.348;2023-04-03T10:03:35;7.10;99.90
23069;DHT22;11702;50.856;4.348;2023-04-03T10:06:22;7.10;99.90
23069;DHT22;11702;50.856;4.348;2023-04-03T10:09:03;7.30;99.90
23069;DHT22;11702;50.856;4.348;2023-04-03T10:11:30;7.30;99.90
23069;DHT22;11702;50.856;4.348;2023-04-03T10:14:01;7.30;99.90
23069;DHT22;11702;50.856;4.348;2023-04-03T10:16:40;7.20;99.90
23069;DHT22;11702;50.856;4.348;2023-04-03T10:24:19;7.40;99.90
23069;DHT22;11702;50.856;4.348;2023-04-03T10:27:05;7.60;99.90
23069;DHT22;11702;50.856;4.348;2023-04-03T10:29:58;7.60;99.90
23069;DHT22;11702;50.856;4.348;2023-04-03T10:32:52;7.90;99.90
23069;DHT22;11702;50.856;4.348;2023-04-03T10:41:04;7.90;99.90
23069;DHT22;11702;50.856;4.348;2023-04-03T10:43:39;7.90;99.90
23069;DHT22;11702;50.856;4.348;2023-04-03T10:46:28;8.00;99.90
23069;DHT22;11702;50.856;4.348;2023-04-03T10:51:45;8.20;99.90
23069;DHT22;11702;50.856;4.348;2023-04-03T10:54:25;8.20;99.90
23069;DHT22;11702;50.856;4.348;2023-04-03T10:57:05;8.00;99.90
23069;DHT22;11702;50.856;4.348;2023-04-03T10:59:35;8.00;99.90
23069;DHT22;11702;50.856;4.348;2023-04-03T11:02:24;8.00;99.90
23069;DHT22;11702;50.856;4.348;2023-04-03T11:04:55;8.10;99.90
23069;DHT22;11702;50.856;4.348;2023-04-03T11:07:33;8.30;99.90
23069;DHT22;11702;50.856;4.348;2023-04-03T11:10:41;8.20;99.80
23069;DHT22;11702;50.856;4.348;2023-04-03T11:13:17;8.40;98.50
23069;DHT22;11702;50.856;4.348;2023-04-03T11:15:44;8.30;99.10
23069;DHT22;11702;50.856;4.348;2023-04-03T11:18:32;8.30;97.50
23069;DHT22;11702;50.856;4.348;2023-04-03T11:21:08;8.40;98.00
23069;DHT22;11702;50.856;4.348;2023-04-03T11:23:38;8.40;99.10
23069;DHT22;11702;50.856;4.348;2023-04-03T11:26:13;8.40;99.20
23069;DHT22;11702;50.856;4.348;2023-04-03T11:28:40;8.40;99.90
23069;DHT22;11702;50.856;4.348;2023-04-03T11:36:54;8.50;99.90
23069;DHT22;11702;50.856;4.348;2023-04-03T11:39:28;8.70;99.90
23069;DHT22;11702;50.856;4.348;2023-04-03T11:41:55;8.80;99.90
23069;DHT22;11702;50.856;4.348;2023-04-03T11:44:38;9.00;99.90
23069;DHT22;11702;50.856;4.348;2023-04-03T11:47:07;9.00;99.60
23069;DHT22;11702;50.856;4.348;2023-04-03T11:50:00;9.10;99.00
23069;DHT22;11702;50.856;4.348;2023-04-03T13:39:45;9.40;79.90
23069;DHT22;11702;50.856;4.348;2023-04-03T13:42:24;9.30;78.90
23069;DHT22;11702;50.856;4.348;2023-04-03T13:48:17;9.50;78.40
23069;DHT22;11702;50.856;4.348;2023-04-03T13:58:53;9.80;81.00
23069;DHT22;11702;50.856;4.348;2023-04-03T14:01:21;9.90;80.20
23069;DHT22;11702;50.856;4.348;2023-04-03T14:03:59;10.00;80.80
23069;DHT22;11702;50.856;4.348;2023-04-03T14:06:25;10.10;81.00
23069;DHT22;11702;50.856;4.348;2023-04-03T14:08:52;10.00;80.30
23069;DHT22;11702;50.856;4.348;2023-04-03T14:11:26;10.00;81.00
23069;DHT22;11702;50.856;4.348;2023-04-03T14:14:00;9.80;78.30
23069;DHT22;11702;50.856;4.348;2023-04-03T14:16:39;9.60;77.70
23069;DHT22;11702;50.856;4.348;2023-04-03T14:19:09;9.70;78.90
23069;DHT22;11702;50.856;4.348;2023-04-03T14:21:43;9.70;79.30
23069;DHT22;11702;50.856;4.348;2023-04-03T14:24:19;9.70;78.80
23069;DHT22;11702;50.856;4.348;2023-04-03T14:26:45;9.80;80.10
23069;DHT22;11702;50.856;4.348;2023-04-03T14:29:13;10.00;79.70
23069;DHT22;11702;50.856;4.348;2023-04-03T14:31:39;10.00;77.10
23069;DHT22;11702;50.856;4.348;2023-04-03T14:34:06;9.90;77.80
23069;DHT22;11702;50.856;4.348;2023-04-03T14:36:33;9.70;78.60
23069;DHT22;11702;50.856;4.348;2023-04-03T14:38:59;9.70;79.50
23069;DHT22;11702;50.856;4.348;2023-04-03T14:41:26;9.80;79.80
23069;DHT22;11702;50.856;4.348;2023-04-03T14:43:52;9.80;80.10
23069;DHT22;11702;50.856;4.348;2023-04-03T14:46:29;9.80;78.60
23069;DHT22;11702;50.856;4.348;2023-04-03T14:48:57;9.70;78.80
23069;DHT22;11702;50.856;4.348;2023-04-03T14:51:24;9.60;79.70
23069;DHT22;11702;50.856;4.348;2023-04-03T14:53:50;9.70;79.60
23069;DHT22;11702;50.856;4.348;2023-04-03T14:56:18;9.90;79.80
23069;DHT22;11702;50.856;4.348;2023-04-03T14:58:47;10.00;80.10
23069;DHT22;11702;50.856;4.348;2023-04-03T15:01:16;10.20;78.70
23069;DHT22;11702;50.856;4.348;2023-04-03T15:03:42;10.20;81.00
23069;DHT22;11702;50.856;4.348;2023-04-03T15:06:12;10.30;80.20
23069;DHT22;11702;50.856;4.348;2023-04-03T15:08:39;10.50;80.50
23069;DHT22;11702;50.856;4.348;2023-04-03T15:11:07;10.60;79.30
23069;DHT22;11702;50.856;4.348;2023-04-03T15:13:34;10.60;78.80
23069;DHT22;11702;50.856;4.348;2023-04-03T15:15:59;10.60;78.30
23069;DHT22;11702;50.856;4.348;2023-04-03T15:18:27;10.40;77.80
23069;DHT22;11702;50.856;4.348;2023-04-03T15:20:56;10.30;78.20
23069;DHT22;11702;50.856;4.348;2023-04-03T15:23:21;10.30;78.10
23069;DHT22;11702;50.856;4.348;2023-04-03T15:25:52;10.30;77.20
23069;DHT22;11702;50.856;4.348;2023-04-03T15:28:23;10.30;78.80
23069;DHT22;11702;50.856;4.348;2023-04-03T15:30:51;10.40;79.00
23069;DHT22;11702;50.856;4.348;2023-04-03T15:33:17;10.50;76.10
23069;DHT22;11702;50.856;4.348;2023-04-03T15:35:44;10.40;75.40
23069;DHT22;11702;50.856;4.348;2023-04-03T15:38:10;10.20;76.10
23069;DHT22;11702;50.856;4.348;2023-04-03T15:40:36;10.00;74.80
23069;DHT22;11702;50.856;4.348;2023-04-03T15:43:02;9.90;75.40
23069;DHT22;11702;50.856;4.348;2023-04-03T15:45:31;9.80;76.20
23069;DHT22;11702;50.856;4.348;2023-04-03T15:47:57;9.80;76.40
23069;DHT22;11702;50.856;4.348;2023-04-03T15:50:23;9.80;76.80
23069;DHT22;11702;50.856;4.348;2023-04-03T15:52:50;9.80;76.80
23069;DHT22;11702;50.856;4.348;2023-04-03T15:55:21;9.90;75.60
23069;DHT22;11702;50.856;4.348;2023-04-03T15:57:47;10.00;76.20
23069;DHT22;11702;50.856;4.348;2023-04-03T16:00:13;10.00;76.60
23069;DHT22;11702;50.856;4.348;2023-04-03T16:02:40;10.00;76.60
23069;DHT22;11702;50.856;4.348;2023-04-03T16:05:07;10.10;77.50
23069;DHT22;11702;50.856;4.348;2023-04-03T16:07:32;10.00;78.30
23069;DHT22;11702;50.856;4.348;2023-04-03T16:09:58;9.90;78.70
23069;DHT22;11702;50.856;4.348;2023-04-03T16:12:24;10.00;78.50
23069;DHT22;11702;50.856;4.348;2023-04-03T16:14:49;10.10;78.80
23069;DHT22;11702;50.856;4.348;2023-04-03T16:17:15;9.90;77.00
23069;DHT22;11702;50.856;4.348;2023-04-03T16:19:42;9.80;78.30
23069;DHT22;11702;50.856;4.348;2023-04-03T16:22:08;9.60;79.10
23069;DHT22;11702;50.856;4.348;2023-04-03T16:24:34;9.60;80.20
23069;DHT22;11702;50.856;4.348;2023-04-03T16:27:00;9.60;80.50
23069;DHT22;11702;50.856;4.348;2023-04-03T16:29:26;9.60;80.80
23069;DHT22;11702;50.856;4.348;2023-04-03T16:31:52;9.60;81.00
23069;DHT22;11702;50.856;4.348;2023-04-03T16:34:18;9.70;80.80
23069;DHT22;11702;50.856;4.348;2023-04-03T16:36:43;9.70;81.60
23069;DHT22;11702;50.856;4.348;2023-04-03T16:39:09;9.80;82.00
23069;DHT22;11702;50.856;4.348;2023-04-03T16:41:35;9.90;82.00
23069;DHT22;11702;50.856;4.348;2023-04-03T16:44:01;9.80;82.80
23069;DHT22;11702;50.856;4.348;2023-04-03T16:46:28;9.80;82.50
23069;DHT22;11702;50.856;4.348;2023-04-03T16:48:53;9.70;82.40
23069;DHT22;11702;50.856;4.348;2023-04-03T16:51:19;9.70;83.50
23069;DHT22;11702;50.856;4.348;2023-04-03T16:53:45;9.60;82.90
23069;DHT22;11702;50.856;4.348;2023-04-03T16:56:10;9.60;82.80
23069;DHT22;11702;50.856;4.348;2023-04-03T16:58:36;9.50;82.70
23069;DHT22;11702;50.856;4.348;2023-04-03T17:01:12;9.60;84.40
23069;DHT22;11702;50.856;4.348;2023-04-03T17:03:38;9.60;85.30
23069;DHT22;11702;50.856;4.348;2023-04-03T17:06:04;9.50;85.00
23069;DHT22;11702;50.856;4.348;2023-04-03T17:08:29;9.40;85.40
23069;DHT22;11702;50.856;4.348;2023-04-03T17:10:55;9.40;84.60
23069;DHT22;11702;50.856;4.348;2023-04-03T17:13:21;9.30;84.60
23069;DHT22;11702;50.856;4.348;2023-04-03T17:15:46;9.20;85.20
23069;DHT22;11702;50.856;4.348;2023-04-03T17:18:12;9.10;84.80
23069;DHT22;11702;50.856;4.348;2023-04-03T17:20:39;9.10;86.10
23069;DHT22;11702;50.856;4.348;2023-04-03T17:23:05;9.10;85.80
23069;DHT22;11702;50.856;4.348;2023-04-03T17:25:31;9.00;87.40
23069;DHT22;11702;50.856;4.348;2023-04-03T17:27:57;9.10;87.80
23069;DHT22;11702;50.856;4.348;2023-04-03T17:30:23;9.10;87.30
23069;DHT22;11702;50.856;4.348;2023-04-03T17:32:48;9.00;87.50
23069;DHT22;11702;50.856;4.348;2023-04-03T17:35:14;9.10;86.90
23069;DHT22;11702;50.856;4.348;2023-04-03T17:37:40;9.00;86.10
23069;DHT22;11702;50.856;4.348;2023-04-03T17:40:06;9.00;87.10
23069;DHT22;11702;50.856;4.348;2023-04-03T17:42:32;9.00;87.20
23069;DHT22;11702;50.856;4.348;2023-04-03T17:44:58;9.00;87.20
23069;DHT22;11702;50.856;4.348;2023-04-03T17:47:25;8.90;87.90
23069;DHT22;11702;50.856;4.348;2023-04-03T17:49:51;8.80;87.70
23069;DHT22;11702;50.856;4.348;2023-04-03T17:52:16;8.70;88.50
23069;DHT22;11702;50.856;4.348;2023-04-03T17:54:42;8.60;88.20
23069;DHT22;11702;50.856;4.348;2023-04-03T17:57:09;8.60;89.50
23069;DHT22;11702;50.856;4.348;2023-04-03T17:59:36;8.60;88.90
23069;DHT22;11702;50.856;4.348;2023-04-03T18:02:01;8.60;89.80
23069;DHT22;11702;50.856;4.348;2023-04-03T18:04:27;8.50;90.70
23069;DHT22;11702;50.856;4.348;2023-04-03T18:06:55;8.30;91.00
23069;DHT22;11702;50.856;4.348;2023-04-03T18:09:26;8.30;91.30
23069;DHT22;11702;50.856;4.348;2023-04-03T18:11:54;8.30;91.50
23069;DHT22;11702;50.856;4.348;2023-04-03T18:14:23;8.20;91.70
23069;DHT22;11702;50.856;4.348;2023-04-03T18:16:50;8.10;92.00
23069;DHT22;11702;50.856;4.348;2023-04-03T18:19:16;8.00;92.20
23069;DHT22;11702;50.856;4.348;2023-04-03T18:21:41;8.00;92.50
23069;DHT22;11702;50.856;4.348;2023-04-03T18:24:11;7.90;92.20
23069;DHT22;11702;50.856;4.348;2023-04-03T18:26:37;7.90;92.60
23069;DHT22;11702;50.856;4.348;2023-04-03T18:29:05;7.80;92.30
23069;DHT22;11702;50.856;4.348;2023-04-03T18:31:32;7.80;91.90
23069;DHT22;11702;50.856;4.348;2023-04-03T18:33:59;7.80;92.10
23069;DHT22;11702;50.856;4.348;2023-04-03T18:36:25;7.80;92.00
23069;DHT22;11702;50.856;4.348;2023-04-03T18:38:52;7.70;92.20
23069;DHT22;11702;50.856;4.348;2023-04-03T18:41:19;7.70;92.40
23069;DHT22;11702;50.856;4.348;2023-04-03T18:43:47;7.60;93.20
23069;DHT22;11702;50.856;4.348;2023-04-03T18:46:13;7.50;93.00
23069;DHT22;11702;50.856;4.348;2023-04-03T18:48:39;7.50;93.10
23069;DHT22;11702;50.856;4.348;2023-04-03T18:51:11;7.40;93.30
23069;DHT22;11702;50.856;4.348;2023-04-03T18:53:36;7.30;93.80
23069;DHT22;11702;50.856;4.348;2023-04-03T18:56:02;7.30;93.50
23069;DHT22;11702;50.856;4.348;2023-04-03T18:58:28;7.30;93.60
23069;DHT22;11702;50.856;4.348;2023-04-03T19:00:54;7.30;93.80
23069;DHT22;11702;50.856;4.348;2023-04-03T19:03:20;7.20;94.50
23069;DHT22;11702;50.856;4.348;2023-04-03T19:05:45;7.20;94.70
23069;DHT22;11702;50.856;4.348;2023-04-03T19:08:11;7.10;94.50
23069;DHT22;11702;50.856;4.348;2023-04-03T19:10:37;7.20;94.70
23069;DHT22;11702;50.856;4.348;2023-04-03T19:13:03;7.10;94.60
23069;DHT22;11702;50.856;4.348;2023-04-03T19:15:29;7.10;94.90
23069;DHT22;11702;50.856;4.348;2023-04-03T19:17:56;7.10;94.90
23069;DHT22;11702;50.856;4.348;2023-04-03T19:20:39;7.00;94.50
23069;DHT22;11702;50.856;4.348;2023-04-03T19:23:05;6.90;95.00
23069;DHT22;11702;50.856;4.348;2023-04-03T19:25:32;6.90;95.20
23069;DHT22;11702;50.856;4.348;2023-04-03T19:27:58;6.90;95.30
23069;DHT22;11702;50.856;4.348;2023-04-03T19:30:25;6.80;95.40
23069;DHT22;11702;50.856;4.348;2023-04-03T19:32:51;6.90;95.10
23069;DHT22;11702;50.856;4.348;2023-04-03T19:35:18;6.80;95.10
23069;DHT22;11702;50.856;4.348;2023-04-03T19:37:43;6.70;95.30
23069;DHT22;11702;50.856;4.348;2023-04-03T19:40:13;6.70;95.60
23069;DHT22;11702;50.856;4.348;2023-04-03T19:42:38;6.60;96.10
23069;DHT22;11702;50.856;4.348;2023-04-03T19:45:08;6.50;96.20
23069;DHT22;11702;50.856;4.348;2023-04-03T19:47:34;6.50;96.20
23069;DHT22;11702;50.856;4.348;2023-04-03T19:50:00;6.50;96.30
23069;DHT22;11702;50.856;4.348;2023-04-03T19:52:26;6.50;96.50
23069;DHT22;11702;50.856;4.348;2023-04-03T19:54:52;6.40;97.20
23069;DHT22;11702;50.856;4.348;2023-04-03T19:57:17;6.50;97.20
23069;DHT22;11702;50.856;4.348;2023-04-03T19:59:43;6.40;97.30
23069;DHT22;11702;50.856;4.348;2023-04-03T20:02:09;6.40;97.90
23069;DHT22;11702;50.856;4.348;2023-04-03T20:04:35;6.40;98.00
23069;DHT22;11702;50.856;4.348;2023-04-03T20:07:01;6.30;98.20
23069;DHT22;11702;50.856;4.348;2023-04-03T20:09:27;6.20;98.80
23069;DHT22;11702;50.856;4.348;2023-04-03T20:11:53;6.20;98.60
23069;DHT22;11702;50.856;4.348;2023-04-03T20:14:18;6.10;99.20
23069;DHT22;11702;50.856;4.348;2023-04-03T20:16:45;6.10;99.50
23069;DHT22;11702;50.856;4.348;2023-04-03T20:19:11;6.10;99.90
23069;DHT22;11702;50.856;4.348;2023-04-03T20:21:37;6.00;99.90
23069;DHT22;11702;50.856;4.348;2023-04-03T20:24:05;6.10;99.90
23069;DHT22;11702;50.856;4.348;2023-04-03T20:26:33;6.00;99.90
23069;DHT22;11702;50.856;4.348;2023-04-03T20:29:01;6.10;99.90
23069;DHT22;11702;50.856;4.348;2023-04-03T20:31:28;6.10;99.90
23069;DHT22;11702;50.856;4.348;2023-04-03T20:33:54;6.00;99.90
23069;DHT22;11702;50.856;4.348;2023-04-03T20:36:20;5.90;99.90
23069;DHT22;11702;50.856;4.348;2023-04-03T20:38:46;5.80;99.90
23069;DHT22;11702;50.856;4.348;2023-04-03T20:41:13;5.90;99.90
23069;DHT22;11702;50.856;4.348;2023-04-03T20:43:42;5.70;99.90
23069;DHT22;11702;50.856;4.348;2023-04-03T20:46:10;5.80;99.90
23069;DHT22;11702;50.856;4.348;2023-04-03T20:48:38;5.90;99.90
23069;DHT22;11702;50.856;4.348;2023-04-03T20:51:11;5.90;99.90
23069;DHT22;11702;50.856;4.348;2023-04-03T20:53:38;5.80;99.90
23069;DHT22;11702;50.856;4.348;2023-04-03T20:56:04;5.70;99.90
23069;DHT22;11702;50.856;4.348;2023-04-03T20:58:34;5.60;99.90
23069;DHT22;11702;50.856;4.348;2023-04-03T21:00:59;5.70;99.90
23069;DHT22;11702;50.856;4.348;2023-04-03T21:03:27;5.70;99.90
23069;DHT22;11702;50.856;4.348;2023-04-03T21:20:50;5.50;99.90
23069;DHT22;11702;50.856;4.348;2023-04-03T21:23:16;5.50;99.90
23069;DHT22;11702;50.856;4.348;2023-04-03T21:25:42;5.40;99.90
23069;DHT22;11702;50.856;4.348;2023-04-03T21:28:08;5.30;99.90
23069;DHT22;11702;50.856;4.348;2023-04-03T21:30:34;5.30;99.90
23069;DHT22;11702;50.856;4.348;2023-04-03T21:33:02;5.20;99.90
23069;DHT22;11702;50.856;4.348;2023-04-03T21:35:28;5.20;99.90
23069;DHT22;11702;50.856;4.348;2023-04-03T21:37:53;5.30;99.90
23069;DHT22;11702;50.856;4.348;2023-04-03T21:40:19;5.20;99.90
23069;DHT22;11702;50.856;4.348;2023-04-03T21:42:45;5.20;99.90
23069;DHT22;11702;50.856;4.348;2023-04-03T21:45:11;5.30;99.90
23069;DHT22;11702;50.856;4.348;2023-04-03T21:47:41;5.10;99.90
23069;DHT22;11702;50.856;4.348;2023-04-03T21:50:08;5.00;99.90
23069;DHT22;11702;50.856;4.348;2023-04-03T21:52:33;5.00;99.90
23069;DHT22;11702;50.856;4.348;2023-04-03T21:55:00;5.00;99.90
23069;DHT22;11702;50.856;4.348;2023-04-03T21:57:26;5.00;99.90
23069;DHT22;11702;50.856;4.348;2023-04-03T21:59:51;5.10;99.90
23069;DHT22;11702;50.856;4.348;2023-04-03T22:02:17;5.00;99.90
23069;DHT22;11702;50.856;4.348;2023-04-03T22:04:43;4.90;99.90
23069;DHT22;11702;50.856;4.348;2023-04-03T22:07:09;4.80;99.90
23069;DHT22;11702;50.856;4.348;2023-04-03T22:09:35;4.70;99.90
23069;DHT22;11702;50.856;4.348;2023-04-03T22:12:03;4.70;99.90
23069;DHT22;11702;50.856;4.348;2023-04-03T22:14:29;4.70;99.90
23069;DHT22;11702;50.856;4.348;2023-04-03T22:16:55;4.60;99.90
23069;DHT22;11702;50.856;4.348;2023-04-03T22:19:22;4.70;99.90
23069;DHT22;11702;50.856;4.348;2023-04-03T22:21:48;4.70;99.90
23069;DHT22;11702;50.856;4.348;2023-04-03T22:24:14;4.70;99.90
23069;DHT22;11702;50.856;4.348;2023-04-03T22:26:42;4.70;99.90
23069;DHT22;11702;50.856;4.348;2023-04-03T22:29:09;4.70;99.90
23069;DHT22;11702;50.856;4.348;2023-04-03T22:31:34;4.70;99.90
23069;DHT22;11702;50.856;4.348;2023-04-03T22:34:01;4.60;99.90
23069;DHT22;11702;50.856;4.348;2023-04-03T22:36:29;4.60;99.90
23069;DHT22;11702;50.856;4.348;2023-04-03T22:38:55;4.50;99.90
23069;DHT22;11702;50.856;4.348;2023-04-03T22:41:22;4.40;99.90
23069;DHT22;11702;50.856;4.348;2023-04-03T22:43:48;4.30;99.90
23069;DHT22;11702;50.856;4.348;2023-04-03T22:46:13;4.30;99.90
23069;DHT22;11702;50.856;4.348;2023-04-03T22:48:43;4.20;99.90
23069;DHT22;11702;50.856;4.348;2023-04-03T22:51:10;4.30;99.90
23069;DHT22;11702;50.856;4.348;2023-04-03T22:53:37;4.20;99.90
23069;DHT22;11702;50.856;4.348;2023-04-03T22:56:04;4.30;99.90
23069;DHT22;11702;50.856;4.348;2023-04-03T22:58:33;4.20;99.90
23069;DHT22;11702;50.856;4.348;2023-04-03T23:01:05;4.10;99.90
23069;DHT22;11702;50.856;4.348;2023-04-03T23:03:32;4.10;99.90
23069;DHT22;11702;50.856;4.348;2023-04-03T23:05:58;4.10;99.90
23069;DHT22;11702;50.856;4.348;2023-04-03T23:08:26;4.10;99.90
23069;DHT22;11702;50.856;4.348;2023-04-03T23:10:58;4.00;99.90
23069;DHT22;11702;50.856;4.348;2023-04-03T23:13:24;4.00;99.90
23069;DHT22;11702;50.856;4.348;2023-04-03T23:15:57;4.00;99.90
